createdAt,value
2016-12-16T07:45:05.572Z,1019.31
2016-12-16T07:58:22.831Z,1019.41
2016-12-16T07:59:22.756Z,1019.41
2016-12-16T08:09:25.349Z,1019.43
2016-12-16T10:49:40.340Z,1019.5
2016-12-16T11:44:18.322Z,1019.43
2016-12-16T11:45:47.570Z,1019.44
2016-12-16T11:46:47.583Z,1019.41
2016-12-16T11:47:47.597Z,1019.4
2016-12-16T11:48:47.609Z,1019.44
2016-12-16T11:49:47.622Z,1019.46
2016-12-16T11:50:47.635Z,1019.41
2016-12-16T11:51:47.649Z,1019.43
2016-12-16T11:52:47.662Z,1019.41
2016-12-16T11:53:47.676Z,1019.4
2016-12-16T11:54:47.688Z,1019.42
2016-12-16T11:55:47.701Z,1019.4
2016-12-16T11:56:47.717Z,1019.37
2016-12-16T11:57:47.728Z,1019.43
2016-12-16T11:58:47.741Z,1019.44
2016-12-16T11:59:47.753Z,1019.45
2016-12-16T12:00:47.767Z,1019.45
2016-12-16T12:01:47.781Z,1019.45
2016-12-16T12:02:47.794Z,1019.48
2016-12-16T12:03:47.807Z,1019.48
2016-12-16T12:04:47.820Z,1019.48
2016-12-16T12:05:47.833Z,1019.47
2016-12-16T12:06:47.846Z,1019.47
2016-12-16T14:29:07.481Z,1019.83
2016-12-16T14:30:07.494Z,1019.87
2016-12-16T14:31:07.507Z,1019.86
2016-12-16T14:32:07.521Z,1019.84
2016-12-16T14:33:07.534Z,1019.85
2016-12-16T14:34:07.549Z,1019.88
2016-12-16T14:35:07.562Z,1019.85
2016-12-16T14:36:07.577Z,1019.84
2016-12-16T14:37:07.590Z,1019.85
2016-12-16T15:19:47.933Z,1020.03
2016-12-16T15:20:47.947Z,1020.03
2016-12-16T15:21:47.962Z,1020.02
2016-12-16T15:22:47.974Z,1020.05
2016-12-16T15:23:47.987Z,1020.02
2016-12-16T15:24:48.001Z,1020.07
2016-12-16T15:25:48.013Z,1020.09
2016-12-16T15:26:48.028Z,1020.08
2016-12-16T15:27:48.042Z,1020.07
2016-12-16T15:28:48.053Z,1020.08
2016-12-16T15:29:48.070Z,1020.09
2016-12-16T15:30:48.081Z,1020.1
2016-12-16T15:31:48.111Z,1020.09
2016-12-16T15:32:48.112Z,1020.13
2016-12-16T15:33:48.136Z,1020.1
2016-12-16T15:34:48.134Z,1020.16
2016-12-16T15:35:48.149Z,1020.13
2016-12-16T15:36:48.163Z,1020.13
